Cfl Performer — PHLY — position and weather

sailwx.info

Track history (hours):
 
Tides and Currents Weather Stations Pressure Air Temp Water Temp Dewpoint Dewpoint Depression Visibility Wind Speed Wind Dir Waves Ship Positions

Cfl Performer

Last reported at 2017-Nov-24 05:22 UTC. Time now 2017-Nov-24 09:36 UTC.
Position N 53°34' E 005°30'.

Length 117 m; draft 3.2 m.

Type: Cargo ship. MMSI: 244989000.

Date/timePositionNaut miles runAvg speedWind from/ knotsBaromVisibWave heightAir tempDewpointWater temp
2017-Nov-24 05:22N 53°34' E 005°30'4 9.9
2017-Nov-24 05:00N 53°33' E 005°24'5 9.9
2017-Nov-24 04:30N 53°32' E 005°16'5 9.9
2017-Nov-24 04:00N 53°30' E 005°09'5 9.8
2017-Nov-24 03:30N 53°28' E 005°01'5 9.9
2017-Nov-24 03:00N 53°26' E 004°53'5 9.9
2017-Nov-24 02:30N 53°24' E 004°46'19 9.7
2017-Nov-24 00:32N 53°08' E 004°29'2 9.8
2017-Nov-24 00:20N 53°06' E 004°28'3 9.7
2017-Nov-23 23:59N 53°03' E 004°25'5 9.8
2017-Nov-23 23:30N 52°59' E 004°21'5 9.8
2017-Nov-23 22:59N 52°54' E 004°18'5 9.9
2017-Nov-23 22:28N 52°50' E 004°14'510.4
2017-Nov-23 22:00N 52°46' E 004°08'510.6
2017-Nov-23 21:30N 52°42' E 004°02'611.4
2017-Nov-23 21:00N 52°38' E 003°56'8812.7
2017-Nov-23 14:04N 51°32' E 002°21'112.9
2017-Nov-23 14:00N 51°32' E 002°20'612.5
2017-Nov-23 13:30N 51°26' E 002°15'4 8.9
2017-Nov-23 13:00N 51°22' E 002°14'4 8.8
2017-Nov-23 12:30N 51°21' E 002°21'6 9.8
2017-Nov-23 11:53N 51°23' E 002°30'4 8.1
2017-Nov-23 11:25N 51°20' E 002°34'0 0.1
2017-Nov-23 10:40N 51°20' E 002°34'0 0.1
2017-Nov-23 10:13N 51°20' E 002°34'0 0.1
2017-Nov-23 09:52N 51°20' E 002°34'0 0.0
2017-Nov-23 08:40N 51°20' E 002°34'0 0.0
2017-Nov-23 07:55N 51°20' E 002°34'2 3.5
2017-Nov-23 07:16N 51°22' E 002°32'311.2
2017-Nov-23 07:00N 51°21' E 002°28'4 7.7
2017-Nov-23 06:30N 51°19' E 002°22'4 7.9
2017-Nov-23 06:00N 51°18' E 002°17'4 8.2
2017-Nov-23 05:31N 51°15' E 002°11'4 8.3
2017-Nov-23 05:00N 51°13' E 002°05'4 8.7
2017-Nov-23 04:30N 51°11' E 001°59'4 8.7
2017-Nov-23 04:00N 51°09' E 001°53'4 7.9
2017-Nov-23 03:30N 51°07' E 001°48'510.7
2017-Nov-23 03:00N 51°03' E 001°42'713.4
2017-Nov-23 02:30N 50°58' E 001°35'612.9
2017-Nov-23 02:00N 50°53' E 001°28'712.7
2017-Nov-23 01:28N 50°47' E 001°25'1911.0
2017-Nov-22 23:45N 50°32' E 001°06'510.6
2017-Nov-22 23:16N 50°28' E 001°00'3710.2
2017-Nov-22 19:39N 50°04' E 000°17'1 9.4
2017-Nov-22 19:30N 50°03' E 000°16'  
2017-Nov-20 00:28N 49°12' W 000°19'0 0.0
2017-Nov-19 23:49N 49°12' W 000°19'0 0.0
2017-Nov-19 23:22N 49°12' W 000°19'0 0.0
2017-Nov-19 22:58N 49°12' W 000°19'0 0.0
2017-Nov-19 22:28N 49°12' W 000°19'0 0.0
2017-Nov-19 21:58N 49°12' W 000°19'0 0.0
2017-Nov-19 21:25N 49°12' W 000°19'0 0.0
2017-Nov-19 20:58N 49°12' W 000°19'0 0.0
2017-Nov-19 20:28N 49°12' W 000°19'0 0.0
2017-Nov-19 19:58N 49°12' W 000°19'0 0.0
2017-Nov-19 19:25N 49°12' W 000°19'0 0.0
2017-Nov-19 18:58N 49°12' W 000°19'0 0.0
2017-Nov-19 18:28N 49°12' W 000°19'0 0.0
2017-Nov-19 17:37N 49°12' W 000°19'0 0.0
2017-Nov-19 17:28N 49°12' W 000°19'0 0.0
2017-Nov-19 16:58N 49°12' W 000°19'0 0.0
2017-Nov-19 16:28N 49°12' W 000°19'0 0.0
2017-Nov-19 15:58N 49°12' W 000°19'0 0.0
2017-Nov-19 15:28N 49°12' W 000°19'0 0.0
2017-Nov-19 14:52N 49°12' W 000°19'0 0.0
2017-Nov-19 14:28N 49°12' W 000°19'0 0.0
2017-Nov-19 13:58N 49°12' W 000°19'0 0.0
2017-Nov-19 13:28N 49°12' W 000°19'0 0.0
2017-Nov-19 12:58N 49°12' W 000°19'0 0.0
2017-Nov-19 12:28N 49°12' W 000°19'0 0.0
2017-Nov-19 11:58N 49°12' W 000°19'0 0.0
2017-Nov-19 11:28N 49°12' W 000°19'0 0.1
2017-Nov-19 11:00N 49°12' W 000°19'2 4.4
2017-Nov-19 10:30N 49°14' W 000°18'3 6.1
2017-Nov-19 10:00N 49°16' W 000°15'1 1.1
2017-Nov-19 09:30N 49°17' W 000°15'3 5.6
2017-Nov-19 09:00N 49°20' W 000°14'4 7.6
2017-Nov-19 08:30N 49°23' W 000°14'510.6
2017-Nov-19 08:00N 49°29' W 000°12'510.4
2017-Nov-19 07:30N 49°34' W 000°11'611.1
2017-Nov-19 07:00N 49°39' W 000°10'611.9
2017-Nov-19 06:30N 49°45' W 000°10'612.1
2017-Nov-19 06:00N 49°51' W 000°09'612.0
2017-Nov-19 05:30N 49°57' W 000°08'611.8
2017-Nov-19 05:00N 50°03' W 000°07'611.9
2017-Nov-19 04:30N 50°09' W 000°06'1012.0
2017-Nov-19 03:42N 50°18' W 000°04'212.0
2017-Nov-19 03:30N 50°21' W 000°03'611.8
2017-Nov-19 03:00N 50°27' W 000°02'612.4
2017-Nov-19 02:30N 50°30' E 000°07'612.6
2017-Nov-19 02:00N 50°33' E 000°16'612.3
2017-Nov-19 01:30N 50°35' E 000°24'612.0
2017-Nov-19 01:00N 50°38' E 000°33'611.5
2017-Nov-19 00:30N 50°41' E 000°40'611.1
2017-Nov-19 00:00N 50°44' E 000°47'510.6
2017-Nov-18 23:30N 50°47' E 000°54'510.3
2017-Nov-18 23:00N 50°50' E 001°01'510.3
2017-Nov-18 22:29N 50°54' E 001°07'510.3
2017-Nov-18 22:00N 50°57' E 001°13'510.8
2017-Nov-18 21:30N 51°01' E 001°20'612.4
2017-Nov-18 21:00N 51°04' E 001°27'714.2
2017-Nov-18 20:30N 51°09' E 001°36'714.2
2017-Nov-18 20:00N 51°14' E 001°45'714.3
2017-Nov-18 19:30N 51°20' E 001°51'713.5
2017-Nov-18 19:00N 51°26' E 001°56'612.8
2017-Nov-18 18:30N 51°31' E 002°02'611.9
2017-Nov-18 18:00N 51°36' E 002°08'250 8.8
2017-Nov-17 13:31N 54°01' E 007°43'110.0
2017-Nov-17 13:27N 54°02' E 007°44'510.2
2017-Nov-17 12:59N 54°01' E 007°52'510.1
2017-Nov-17 12:30N 54°01' E 008°00'510.5
2017-Nov-17 12:00N 54°01' E 008°09'510.2
2017-Nov-17 11:30N 54°00' E 008°18'610.8
2017-Nov-17 11:00N 53°59' E 008°27'5 9.9
2017-Nov-17 10:30N 53°58' E 008°35'4 8.4
2017-Nov-17 10:00N 53°56' E 008°41'4 8.3
2017-Nov-17 09:30N 53°52' E 008°44'4 7.5
2017-Nov-17 09:00N 53°50' E 008°50'4 8.5
2017-Nov-17 08:30N 53°51' E 008°57'5 9.8
2017-Nov-17 08:00N 53°53' E 009°05'2 4.7
2017-Nov-17 07:30N 53°54' E 009°09'0 0.1
2017-Nov-17 07:00N 53°54' E 009°09'1 2.3
2017-Nov-17 06:30N 53°54' E 009°10'4 8.3
2017-Nov-17 06:00N 53°58' E 009°15'4 8.2
2017-Nov-17 05:30N 54°01' E 009°18'4 8.7
2017-Nov-17 05:01N 54°05' E 009°20'4 7.5
2017-Nov-17 04:30N 54°09' E 009°22'3 5.8
2017-Nov-17 04:00N 54°10' E 009°26'4 8.4
2017-Nov-17 03:30N 54°12' E 009°33'4 7.6
2017-Nov-17 03:00N 54°15' E 009°37'4 7.1
2017-Nov-17 02:30N 54°18' E 009°41'3 6.4
2017-Nov-17 02:00N 54°20' E 009°44'2 3.2
2017-Nov-17 01:30N 54°21' E 009°46'4 7.6
2017-Nov-17 01:00N 54°21' E 009°53'4 7.6
2017-Nov-17 00:30N 54°21' E 009°59'20 5.2
2017-Nov-16 20:39N 54°32' E 010°27'2 9.7
2017-Nov-16 20:30N 54°33' E 010°29'5 9.6
2017-Nov-16 20:00N 54°35' E 010°37'5 9.8
2017-Nov-16 19:30N 54°35' E 010°45'5 9.9
2017-Nov-16 19:00N 54°36' E 010°54'510.3
2017-Nov-16 18:30N 54°36' E 011°03'510.0
2017-Nov-16 18:00N 54°36' E 011°11'510.4
2017-Nov-16 17:30N 54°34' E 011°20'510.3
2017-Nov-16 17:00N 54°32' E 011°28'510.2
2017-Nov-16 16:30N 54°30' E 011°36'510.4
2017-Nov-16 16:00N 54°27' E 011°44'510.0
2017-Nov-16 15:30N 54°27' E 011°53'510.4
2017-Nov-16 15:00N 54°27' E 012°02'69 9.7
2017-Nov-16 07:52N 55°01' E 013°46'410.3
2017-Nov-16 07:28N 55°02' E 013°53'710.2
2017-Nov-16 06:47N 55°05' E 014°04'310.4
2017-Nov-16 06:28N 55°07' E 014°08'510.4
2017-Nov-16 05:59N 55°11' E 014°14'510.4
2017-Nov-16 05:30N 55°15' E 014°19'510.7
2017-Nov-16 05:00N 55°19' E 014°25'611.0
2017-Nov-16 04:30N 55°24' E 014°31'510.6
2017-Nov-16 04:00N 55°27' E 014°38'610.5
2017-Nov-16 03:29N 55°30' E 014°46'510.4
2017-Nov-16 02:58N 55°32' E 014°54'510.4
2017-Nov-16 02:29N 55°35' E 015°02'510.4
2017-Nov-16 02:00N 55°37' E 015°10'510.3
2017-Nov-16 01:30N 55°40' E 015°18'510.2
2017-Nov-16 01:00N 55°43' E 015°25'510.2
2017-Nov-16 00:30N 55°45' E 015°33'510.2
2017-Nov-16 00:00N 55°48' E 015°41'510.2
2017-Nov-15 23:30N 55°50' E 015°49'510.1
2017-Nov-15 23:00N 55°53' E 015°57'510.1
2017-Nov-15 22:30N 55°56' E 016°04'510.1
2017-Nov-15 22:00N 55°58' E 016°12'510.1
2017-Nov-15 21:30N 56°01' E 016°20'510.2
2017-Nov-15 21:00N 56°03' E 016°28'510.2
2017-Nov-15 20:30N 56°06' E 016°35'510.0
2017-Nov-15 20:00N 56°09' E 016°43'5 9.9
2017-Nov-15 19:30N 56°12' E 016°50'5 9.9
2017-Nov-15 18:59N 56°15' E 016°57'510.0
2017-Nov-15 18:30N 56°18' E 017°04'272 9.7
2017-Nov-14 14:29N 59°34' E 022°59'5 9.9
2017-Nov-14 14:00N 59°35' E 023°08'5 9.9
2017-Nov-14 13:30N 59°37' E 023°17'5 9.9
2017-Nov-14 13:00N 59°38' E 023°27'5 9.9
2017-Nov-14 12:30N 59°40' E 023°36'5 9.9
2017-Nov-14 12:00N 59°41' E 023°46'510.0
2017-Nov-14 11:30N 59°43' E 023°55'510.0
2017-Nov-14 11:00N 59°44' E 024°04'510.1
2017-Nov-14 10:28N 59°46' E 024°15'510.1
2017-Nov-14 10:00N 59°47' E 024°24'510.1
2017-Nov-14 09:30N 59°48' E 024°34'510.0
2017-Nov-14 09:00N 59°49' E 024°43'510.0
2017-Nov-14 08:30N 59°50' E 024°53'510.1
2017-Nov-14 07:58N 59°51' E 025°04'  
Track history (hours):
 
Tides and Currents Weather Stations Pressure Air Temp Water Temp Dewpoint Dewpoint Depression Visibility Wind Speed Wind Dir Waves Ship Positions

Cfl Performer

Last reported at 2017-Nov-24 05:22 UTC. Time now 2017-Nov-24 09:36 UTC.
Position N 53°34' E 005°30'.

Length 117 m; draft 3.2 m.

Type: Cargo ship. MMSI: 244989000.

Date/timePositionNaut miles runAvg speedWind from/ knotsBaromVisibWave heightAir tempDewpointWater temp
2017-Nov-24 05:22N 53°34' E 005°30'4 9.9
2017-Nov-24 05:00N 53°33' E 005°24'5 9.9
2017-Nov-24 04:30N 53°32' E 005°16'5 9.9
2017-Nov-24 04:00N 53°30' E 005°09'5 9.8
2017-Nov-24 03:30N 53°28' E 005°01'5 9.9
2017-Nov-24 03:00N 53°26' E 004°53'5 9.9
2017-Nov-24 02:30N 53°24' E 004°46'19 9.7
2017-Nov-24 00:32N 53°08' E 004°29'2 9.8
2017-Nov-24 00:20N 53°06' E 004°28'3 9.7
2017-Nov-23 23:59N 53°03' E 004°25'5 9.8
2017-Nov-23 23:30N 52°59' E 004°21'5 9.8
2017-Nov-23 22:59N 52°54' E 004°18'5 9.9
2017-Nov-23 22:28N 52°50' E 004°14'510.4
2017-Nov-23 22:00N 52°46' E 004°08'510.6
2017-Nov-23 21:30N 52°42' E 004°02'611.4
2017-Nov-23 21:00N 52°38' E 003°56'8812.7
2017-Nov-23 14:04N 51°32' E 002°21'112.9
2017-Nov-23 14:00N 51°32' E 002°20'612.5
2017-Nov-23 13:30N 51°26' E 002°15'4 8.9
2017-Nov-23 13:00N 51°22' E 002°14'4 8.8
2017-Nov-23 12:30N 51°21' E 002°21'6 9.8
2017-Nov-23 11:53N 51°23' E 002°30'4 8.1
2017-Nov-23 11:25N 51°20' E 002°34'0 0.1
2017-Nov-23 10:40N 51°20' E 002°34'0 0.1
2017-Nov-23 10:13N 51°20' E 002°34'0 0.1
2017-Nov-23 09:52N 51°20' E 002°34'0 0.0
2017-Nov-23 08:40N 51°20' E 002°34'0 0.0
2017-Nov-23 07:55N 51°20' E 002°34'2 3.5
2017-Nov-23 07:16N 51°22' E 002°32'311.2
2017-Nov-23 07:00N 51°21' E 002°28'4 7.7
2017-Nov-23 06:30N 51°19' E 002°22'4 7.9
2017-Nov-23 06:00N 51°18' E 002°17'4 8.2
2017-Nov-23 05:31N 51°15' E 002°11'4 8.3
2017-Nov-23 05:00N 51°13' E 002°05'4 8.7
2017-Nov-23 04:30N 51°11' E 001°59'4 8.7
2017-Nov-23 04:00N 51°09' E 001°53'4 7.9
2017-Nov-23 03:30N 51°07' E 001°48'510.7
2017-Nov-23 03:00N 51°03' E 001°42'713.4
2017-Nov-23 02:30N 50°58' E 001°35'612.9
2017-Nov-23 02:00N 50°53' E 001°28'712.7
2017-Nov-23 01:28N 50°47' E 001°25'1911.0
2017-Nov-22 23:45N 50°32' E 001°06'510.6
2017-Nov-22 23:16N 50°28' E 001°00'3710.2
2017-Nov-22 19:39N 50°04' E 000°17'1 9.4
2017-Nov-22 19:30N 50°03' E 000°16'  
2017-Nov-20 00:28N 49°12' W 000°19'0 0.0
2017-Nov-19 23:49N 49°12' W 000°19'0 0.0
2017-Nov-19 23:22N 49°12' W 000°19'0 0.0
2017-Nov-19 22:58N 49°12' W 000°19'0 0.0
2017-Nov-19 22:28N 49°12' W 000°19'0 0.0
2017-Nov-19 21:58N 49°12' W 000°19'0 0.0
2017-Nov-19 21:25N 49°12' W 000°19'0 0.0
2017-Nov-19 20:58N 49°12' W 000°19'0 0.0
2017-Nov-19 20:28N 49°12' W 000°19'0 0.0
2017-Nov-19 19:58N 49°12' W 000°19'0 0.0
2017-Nov-19 19:25N 49°12' W 000°19'0 0.0
2017-Nov-19 18:58N 49°12' W 000°19'0 0.0
2017-Nov-19 18:28N 49°12' W 000°19'0 0.0
2017-Nov-19 17:37N 49°12' W 000°19'0 0.0
2017-Nov-19 17:28N 49°12' W 000°19'0 0.0
2017-Nov-19 16:58N 49°12' W 000°19'0 0.0
2017-Nov-19 16:28N 49°12' W 000°19'0 0.0
2017-Nov-19 15:58N 49°12' W 000°19'0 0.0
2017-Nov-19 15:28N 49°12' W 000°19'0 0.0
2017-Nov-19 14:52N 49°12' W 000°19'0 0.0
2017-Nov-19 14:28N 49°12' W 000°19'0 0.0
2017-Nov-19 13:58N 49°12' W 000°19'0 0.0
2017-Nov-19 13:28N 49°12' W 000°19'0 0.0
2017-Nov-19 12:58N 49°12' W 000°19'0 0.0
2017-Nov-19 12:28N 49°12' W 000°19'0 0.0
2017-Nov-19 11:58N 49°12' W 000°19'0 0.0
2017-Nov-19 11:28N 49°12' W 000°19'0 0.1
2017-Nov-19 11:00N 49°12' W 000°19'2 4.4
2017-Nov-19 10:30N 49°14' W 000°18'3 6.1
2017-Nov-19 10:00N 49°16' W 000°15'1 1.1
2017-Nov-19 09:30N 49°17' W 000°15'3 5.6
2017-Nov-19 09:00N 49°20' W 000°14'4 7.6
2017-Nov-19 08:30N 49°23' W 000°14'510.6
2017-Nov-19 08:00N 49°29' W 000°12'510.4
2017-Nov-19 07:30N 49°34' W 000°11'611.1
2017-Nov-19 07:00N 49°39' W 000°10'611.9
2017-Nov-19 06:30N 49°45' W 000°10'612.1
2017-Nov-19 06:00N 49°51' W 000°09'612.0
2017-Nov-19 05:30N 49°57' W 000°08'611.8
2017-Nov-19 05:00N 50°03' W 000°07'611.9
2017-Nov-19 04:30N 50°09' W 000°06'1012.0
2017-Nov-19 03:42N 50°18' W 000°04'212.0
2017-Nov-19 03:30N 50°21' W 000°03'611.8
2017-Nov-19 03:00N 50°27' W 000°02'612.4
2017-Nov-19 02:30N 50°30' E 000°07'612.6
2017-Nov-19 02:00N 50°33' E 000°16'612.3
2017-Nov-19 01:30N 50°35' E 000°24'612.0
2017-Nov-19 01:00N 50°38' E 000°33'611.5
2017-Nov-19 00:30N 50°41' E 000°40'611.1
2017-Nov-19 00:00N 50°44' E 000°47'510.6
2017-Nov-18 23:30N 50°47' E 000°54'510.3
2017-Nov-18 23:00N 50°50' E 001°01'510.3
2017-Nov-18 22:29N 50°54' E 001°07'510.3
2017-Nov-18 22:00N 50°57' E 001°13'510.8
2017-Nov-18 21:30N 51°01' E 001°20'612.4
2017-Nov-18 21:00N 51°04' E 001°27'714.2
2017-Nov-18 20:30N 51°09' E 001°36'714.2
2017-Nov-18 20:00N 51°14' E 001°45'714.3
2017-Nov-18 19:30N 51°20' E 001°51'713.5
2017-Nov-18 19:00N 51°26' E 001°56'612.8
2017-Nov-18 18:30N 51°31' E 002°02'611.9
2017-Nov-18 18:00N 51°36' E 002°08'250 8.8
2017-Nov-17 13:31N 54°01' E 007°43'110.0
2017-Nov-17 13:27N 54°02' E 007°44'510.2
2017-Nov-17 12:59N 54°01' E 007°52'510.1
2017-Nov-17 12:30N 54°01' E 008°00'510.5
2017-Nov-17 12:00N 54°01' E 008°09'510.2
2017-Nov-17 11:30N 54°00' E 008°18'610.8
2017-Nov-17 11:00N 53°59' E 008°27'5 9.9
2017-Nov-17 10:30N 53°58' E 008°35'4 8.4
2017-Nov-17 10:00N 53°56' E 008°41'4 8.3
2017-Nov-17 09:30N 53°52' E 008°44'4 7.5
2017-Nov-17 09:00N 53°50' E 008°50'4 8.5
2017-Nov-17 08:30N 53°51' E 008°57'5 9.8
2017-Nov-17 08:00N 53°53' E 009°05'2 4.7
2017-Nov-17 07:30N 53°54' E 009°09'0 0.1
2017-Nov-17 07:00N 53°54' E 009°09'1 2.3
2017-Nov-17 06:30N 53°54' E 009°10'4 8.3
2017-Nov-17 06:00N 53°58' E 009°15'4 8.2
2017-Nov-17 05:30N 54°01' E 009°18'4 8.7
2017-Nov-17 05:01N 54°05' E 009°20'4 7.5
2017-Nov-17 04:30N 54°09' E 009°22'3 5.8
2017-Nov-17 04:00N 54°10' E 009°26'4 8.4
2017-Nov-17 03:30N 54°12' E 009°33'4 7.6
2017-Nov-17 03:00N 54°15' E 009°37'4 7.1
2017-Nov-17 02:30N 54°18' E 009°41'3 6.4
2017-Nov-17 02:00N 54°20' E 009°44'2 3.2
2017-Nov-17 01:30N 54°21' E 009°46'4 7.6
2017-Nov-17 01:00N 54°21' E 009°53'4 7.6
2017-Nov-17 00:30N 54°21' E 009°59'20 5.2
2017-Nov-16 20:39N 54°32' E 010°27'2 9.7
2017-Nov-16 20:30N 54°33' E 010°29'5 9.6
2017-Nov-16 20:00N 54°35' E 010°37'5 9.8
2017-Nov-16 19:30N 54°35' E 010°45'5 9.9
2017-Nov-16 19:00N 54°36' E 010°54'510.3
2017-Nov-16 18:30N 54°36' E 011°03'510.0
2017-Nov-16 18:00N 54°36' E 011°11'510.4
2017-Nov-16 17:30N 54°34' E 011°20'510.3
2017-Nov-16 17:00N 54°32' E 011°28'510.2
2017-Nov-16 16:30N 54°30' E 011°36'510.4
2017-Nov-16 16:00N 54°27' E 011°44'510.0
2017-Nov-16 15:30N 54°27' E 011°53'510.4
2017-Nov-16 15:00N 54°27' E 012°02'69 9.7
2017-Nov-16 07:52N 55°01' E 013°46'410.3
2017-Nov-16 07:28N 55°02' E 013°53'710.2
2017-Nov-16 06:47N 55°05' E 014°04'310.4
2017-Nov-16 06:28N 55°07' E 014°08'510.4
2017-Nov-16 05:59N 55°11' E 014°14'510.4
2017-Nov-16 05:30N 55°15' E 014°19'510.7
2017-Nov-16 05:00N 55°19' E 014°25'611.0
2017-Nov-16 04:30N 55°24' E 014°31'510.6
2017-Nov-16 04:00N 55°27' E 014°38'610.5
2017-Nov-16 03:29N 55°30' E 014°46'510.4
2017-Nov-16 02:58N 55°32' E 014°54'510.4
2017-Nov-16 02:29N 55°35' E 015°02'510.4
2017-Nov-16 02:00N 55°37' E 015°10'510.3
2017-Nov-16 01:30N 55°40' E 015°18'510.2
2017-Nov-16 01:00N 55°43' E 015°25'510.2
2017-Nov-16 00:30N 55°45' E 015°33'510.2
2017-Nov-16 00:00N 55°48' E 015°41'510.2
2017-Nov-15 23:30N 55°50' E 015°49'510.1
2017-Nov-15 23:00N 55°53' E 015°57'510.1
2017-Nov-15 22:30N 55°56' E 016°04'510.1
2017-Nov-15 22:00N 55°58' E 016°12'510.1
2017-Nov-15 21:30N 56°01' E 016°20'510.2
2017-Nov-15 21:00N 56°03' E 016°28'510.2
2017-Nov-15 20:30N 56°06' E 016°35'510.0
2017-Nov-15 20:00N 56°09' E 016°43'5 9.9
2017-Nov-15 19:30N 56°12' E 016°50'5 9.9
2017-Nov-15 18:59N 56°15' E 016°57'510.0
2017-Nov-15 18:30N 56°18' E 017°04'272 9.7
2017-Nov-14 14:29N 59°34' E 022°59'5 9.9
2017-Nov-14 14:00N 59°35' E 023°08'5 9.9
2017-Nov-14 13:30N 59°37' E 023°17'5 9.9
2017-Nov-14 13:00N 59°38' E 023°27'5 9.9
2017-Nov-14 12:30N 59°40' E 023°36'5 9.9
2017-Nov-14 12:00N 59°41' E 023°46'510.0
2017-Nov-14 11:30N 59°43' E 023°55'510.0
2017-Nov-14 11:00N 59°44' E 024°04'510.1
2017-Nov-14 10:28N 59°46' E 024°15'510.1
2017-Nov-14 10:00N 59°47' E 024°24'510.1
2017-Nov-14 09:30N 59°48' E 024°34'510.0
2017-Nov-14 09:00N 59°49' E 024°43'510.0
2017-Nov-14 08:30N 59°50' E 024°53'510.1
2017-Nov-14 07:58N 59°51' E 025°04'  

Dump ship's entire track history